sensor_id;sensor_type;location;lat;lon;timestamp;pressure;altitude;pressure_sealevel;temperature
80581;BMP180;1474;51.460;7.150;2023-12-20T06:03:05;100479.00;;;14.70
80581;BMP180;1474;51.460;7.150;2023-12-20T06:05:31;100494.00;;;14.70
80581;BMP180;1474;51.460;7.150;2023-12-20T06:07:57;100480.00;;;14.70
80581;BMP180;1474;51.460;7.150;2023-12-20T06:10:27;100479.00;;;14.70
80581;BMP180;1474;51.460;7.150;2023-12-20T06:12:52;100472.00;;;14.70
80581;BMP180;1474;51.460;7.150;2023-12-20T06:15:19;100472.00;;;14.70
80581;BMP180;1474;51.460;7.150;2023-12-20T06:17:45;100479.00;;;14.70
80581;BMP180;1474;51.460;7.150;2023-12-20T06:20:12;100478.00;;;14.70
80581;BMP180;1474;51.460;7.150;2023-12-20T06:22:38;100476.00;;;14.70
80581;BMP180;1474;51.460;7.150;2023-12-20T06:25:05;100475.00;;;14.70
80581;BMP180;1474;51.460;7.150;2023-12-20T06:27:32;100484.00;;;14.70
80581;BMP180;1474;51.460;7.150;2023-12-20T06:29:58;100475.00;;;14.70
80581;BMP180;1474;51.460;7.150;2023-12-20T06:32:24;100486.00;;;14.70
80581;BMP180;1474;51.460;7.150;2023-12-20T06:34:50;100489.00;;;14.70
80581;BMP180;1474;51.460;7.150;2023-12-20T06:37:16;100469.00;;;14.70
80581;BMP180;1474;51.460;7.150;2023-12-20T06:39:42;100482.00;;;14.70
80581;BMP180;1474;51.460;7.150;2023-12-20T06:42:07;100476.00;;;14.70
80581;BMP180;1474;51.460;7.150;2023-12-20T06:44:33;100477.00;;;14.70
80581;BMP180;1474;51.460;7.150;2023-12-20T06:47:00;100490.00;;;14.70
80581;BMP180;1474;51.460;7.150;2023-12-20T06:49:25;100479.00;;;14.70
80581;BMP180;1474;51.460;7.150;2023-12-20T06:51:51;100488.00;;;14.70
80581;BMP180;1474;51.460;7.150;2023-12-20T06:54:17;100479.00;;;14.70
80581;BMP180;1474;51.460;7.150;2023-12-20T06:56:43;100488.00;;;14.70
80581;BMP180;1474;51.460;7.150;2023-12-20T06:59:08;100481.00;;;14.70
80581;BMP180;1474;51.460;7.150;2023-12-20T07:01:34;100488.00;;;14.70
80581;BMP180;1474;51.460;7.150;2023-12-20T07:04:00;100485.00;;;14.70
80581;BMP180;1474;51.460;7.150;2023-12-20T07:06:25;100482.00;;;14.70
80581;BMP180;1474;51.460;7.150;2023-12-20T07:08:52;100468.00;;;14.60
80581;BMP180;1474;51.460;7.150;2023-12-20T07:11:18;100479.00;;;14.70
80581;BMP180;1474;51.460;7.150;2023-12-20T07:13:43;100474.00;;;14.70
80581;BMP180;1474;51.460;7.150;2023-12-20T07:16:09;100470.00;;;14.70
80581;BMP180;1474;51.460;7.150;2023-12-20T07:18:35;100476.00;;;14.70
80581;BMP180;1474;51.460;7.150;2023-12-20T07:21:01;100470.00;;;14.70
80581;BMP180;1474;51.460;7.150;2023-12-20T07:23:27;100480.00;;;14.70
80581;BMP180;1474;51.460;7.150;2023-12-20T07:25:52;100473.00;;;14.70
80581;BMP180;1474;51.460;7.150;2023-12-20T07:28:18;100476.00;;;14.70
80581;BMP180;1474;51.460;7.150;2023-12-20T07:30:44;100479.00;;;14.70
80581;BMP180;1474;51.460;7.150;2023-12-20T07:33:10;100476.00;;;14.70
80581;BMP180;1474;51.460;7.150;2023-12-20T07:35:37;100479.00;;;14.70
80581;BMP180;1474;51.460;7.150;2023-12-20T07:38:04;100479.00;;;14.70
80581;BMP180;1474;51.460;7.150;2023-12-20T07:40:29;100484.00;;;14.70
80581;BMP180;1474;51.460;7.150;2023-12-20T07:42:55;100486.00;;;14.70
80581;BMP180;1474;51.460;7.150;2023-12-20T07:45:21;100484.00;;;14.70
80581;BMP180;1474;51.460;7.150;2023-12-20T07:47:47;100487.00;;;14.70
80581;BMP180;1474;51.460;7.150;2023-12-20T07:50:12;100475.00;;;14.70
80581;BMP180;1474;51.460;7.150;2023-12-20T07:52:38;100494.00;;;14.70
80581;BMP180;1474;51.460;7.150;2023-12-20T07:55:04;100487.00;;;14.70
80581;BMP180;1474;51.460;7.150;2023-12-20T07:57:30;100481.00;;;14.70
80581;BMP180;1474;51.460;7.150;2023-12-20T07:59:56;100478.00;;;14.70
80581;BMP180;1474;51.460;7.150;2023-12-20T08:02:22;100483.00;;;14.70
80581;BMP180;1474;51.460;7.150;2023-12-20T08:04:47;100464.00;;;14.70
80581;BMP180;1474;51.460;7.150;2023-12-20T08:07:13;100474.00;;;14.70
80581;BMP180;1474;51.460;7.150;2023-12-20T08:09:39;100462.00;;;14.70
80581;BMP180;1474;51.460;7.150;2023-12-20T08:12:05;100464.00;;;14.70
80581;BMP180;1474;51.460;7.150;2023-12-20T08:14:31;100474.00;;;14.70
80581;BMP180;1474;51.460;7.150;2023-12-20T08:16:57;100474.00;;;14.70
80581;BMP180;1474;51.460;7.150;2023-12-20T08:19:23;100483.00;;;14.70
80581;BMP180;1474;51.460;7.150;2023-12-20T08:21:48;100476.00;;;14.70
80581;BMP180;1474;51.460;7.150;2023-12-20T08:24:14;100476.00;;;14.70
80581;BMP180;1474;51.460;7.150;2023-12-20T08:26:40;100476.00;;;14.70
80581;BMP180;1474;51.460;7.150;2023-12-20T08:29:09;100484.00;;;14.70
80581;BMP180;1474;51.460;7.150;2023-12-20T08:31:34;100483.00;;;14.70
80581;BMP180;1474;51.460;7.150;2023-12-20T08:34:00;100472.00;;;14.70
80581;BMP180;1474;51.460;7.150;2023-12-20T08:36:26;100484.00;;;14.70
80581;BMP180;1474;51.460;7.150;2023-12-20T08:38:52;100482.00;;;14.70
80581;BMP180;1474;51.460;7.150;2023-12-20T08:41:18;100483.00;;;14.70
80581;BMP180;1474;51.460;7.150;2023-12-20T08:43:44;100498.00;;;14.70
80581;BMP180;1474;51.460;7.150;2023-12-20T08:46:09;100492.00;;;14.70
80581;BMP180;1474;51.460;7.150;2023-12-20T08:48:35;100506.00;;;14.70
80581;BMP180;1474;51.460;7.150;2023-12-20T08:51:01;100499.00;;;14.70
80581;BMP180;1474;51.460;7.150;2023-12-20T08:53:27;100488.00;;;14.70
80581;BMP180;1474;51.460;7.150;2023-12-20T08:55:53;100490.00;;;14.70
80581;BMP180;1474;51.460;7.150;2023-12-20T08:58:18;100494.00;;;14.70
80581;BMP180;1474;51.460;7.150;2023-12-20T09:00:45;100488.00;;;14.70
80581;BMP180;1474;51.460;7.150;2023-12-20T09:03:11;100493.00;;;14.70
80581;BMP180;1474;51.460;7.150;2023-12-20T09:05:37;100485.00;;;14.70
80581;BMP180;1474;51.460;7.150;2023-12-20T09:08:03;100480.00;;;14.70
80581;BMP180;1474;51.460;7.150;2023-12-20T09:10:28;100474.00;;;14.70
80581;BMP180;1474;51.460;7.150;2023-12-20T09:12:55;100481.00;;;14.70
80581;BMP180;1474;51.460;7.150;2023-12-20T09:15:26;100483.00;;;14.70
80581;BMP180;1474;51.460;7.150;2023-12-20T09:17:53;100477.00;;;14.70
80581;BMP180;1474;51.460;7.150;2023-12-20T09:20:19;100465.00;;;14.70
80581;BMP180;1474;51.460;7.150;2023-12-20T09:22:45;100477.00;;;14.70
80581;BMP180;1474;51.460;7.150;2023-12-20T09:25:12;100479.00;;;14.70
80581;BMP180;1474;51.460;7.150;2023-12-20T09:27:39;100480.00;;;14.70
80581;BMP180;1474;51.460;7.150;2023-12-20T09:30:05;100476.00;;;14.70
80581;BMP180;1474;51.460;7.150;2023-12-20T09:32:32;100478.00;;;14.70
80581;BMP180;1474;51.460;7.150;2023-12-20T09:34:57;100485.00;;;14.70
80581;BMP180;1474;51.460;7.150;2023-12-20T09:37:27;100470.00;;;14.70
80581;BMP180;1474;51.460;7.150;2023-12-20T09:39:54;100456.00;;;14.70
80581;BMP180;1474;51.460;7.150;2023-12-20T09:43:19;100463.00;;;14.70
80581;BMP180;1474;51.460;7.150;2023-12-20T09:45:47;100467.00;;;14.70
80581;BMP180;1474;51.460;7.150;2023-12-20T09:48:17;100470.00;;;14.70
80581;BMP180;1474;51.460;7.150;2023-12-20T09:50:44;100473.00;;;14.70
80581;BMP180;1474;51.460;7.150;2023-12-20T09:53:12;100476.00;;;14.70
80581;BMP180;1474;51.460;7.150;2023-12-20T09:55:41;100480.00;;;14.70
80581;BMP180;1474;51.460;7.150;2023-12-20T09:58:08;100471.00;;;14.70
80581;BMP180;1474;51.460;7.150;2023-12-20T10:00:35;100472.00;;;14.70
80581;BMP180;1474;51.460;7.150;2023-12-20T10:03:01;100468.00;;;14.70
80581;BMP180;1474;51.460;7.150;2023-12-20T10:05:31;100465.00;;;14.70
80581;BMP180;1474;51.460;7.150;2023-12-20T10:07:59;100461.00;;;14.70
80581;BMP180;1474;51.460;7.150;2023-12-20T10:10:25;100468.00;;;14.70
80581;BMP180;1474;51.460;7.150;2023-12-20T10:13:10;100450.00;;;14.70
80581;BMP180;1474;51.460;7.150;2023-12-20T10:15:37;100467.00;;;14.70
80581;BMP180;1474;51.460;7.150;2023-12-20T10:18:04;100456.00;;;14.70
80581;BMP180;1474;51.460;7.150;2023-12-20T10:20:31;100450.00;;;14.70
80581;BMP180;1474;51.460;7.150;2023-12-20T10:22:58;100455.00;;;14.70
80581;BMP180;1474;51.460;7.150;2023-12-20T10:25:26;100459.00;;;14.70
80581;BMP180;1474;51.460;7.150;2023-12-20T10:30:36;100438.00;;;14.70
80581;BMP180;1474;51.460;7.150;2023-12-20T10:33:02;100451.00;;;14.70
80581;BMP180;1474;51.460;7.150;2023-12-20T10:35:27;100439.00;;;14.70
80581;BMP180;1474;51.460;7.150;2023-12-20T10:37:56;100440.00;;;14.70
80581;BMP180;1474;51.460;7.150;2023-12-20T10:40:23;100427.00;;;14.70
80581;BMP180;1474;51.460;7.150;2023-12-20T10:42:51;100420.00;;;14.70
80581;BMP180;1474;51.460;7.150;2023-12-20T10:45:17;100439.00;;;14.70
80581;BMP180;1474;51.460;7.150;2023-12-20T10:47:46;100437.00;;;14.70
80581;BMP180;1474;51.460;7.150;2023-12-20T10:50:13;100439.00;;;14.70
80581;BMP180;1474;51.460;7.150;2023-12-20T10:52:40;100441.00;;;14.70
80581;BMP180;1474;51.460;7.150;2023-12-20T10:55:07;100434.00;;;14.70
80581;BMP180;1474;51.460;7.150;2023-12-20T10:57:34;100427.00;;;14.70
80581;BMP180;1474;51.460;7.150;2023-12-20T11:00:02;100421.00;;;14.70
80581;BMP180;1474;51.460;7.150;2023-12-20T11:02:35;100434.00;;;14.70
80581;BMP180;1474;51.460;7.150;2023-12-20T11:05:17;100441.00;;;14.70
80581;BMP180;1474;51.460;7.150;2023-12-20T11:08:19;100445.00;;;14.70
80581;BMP180;1474;51.460;7.150;2023-12-20T11:10:58;100443.00;;;14.70
80581;BMP180;1474;51.460;7.150;2023-12-20T11:13:37;100447.00;;;14.70
80581;BMP180;1474;51.460;7.150;2023-12-20T11:16:06;100435.00;;;14.70
80581;BMP180;1474;51.460;7.150;2023-12-20T11:18:34;100444.00;;;14.70
80581;BMP180;1474;51.460;7.150;2023-12-20T11:21:05;100435.00;;;14.70
80581;BMP180;1474;51.460;7.150;2023-12-20T11:23:32;100434.00;;;14.70
80581;BMP180;1474;51.460;7.150;2023-12-20T11:25:59;100430.00;;;14.70
80581;BMP180;1474;51.460;7.150;2023-12-20T11:28:27;100425.00;;;14.70
80581;BMP180;1474;51.460;7.150;2023-12-20T11:30:55;100430.00;;;14.70
80581;BMP180;1474;51.460;7.150;2023-12-20T11:33:24;100425.00;;;14.70
80581;BMP180;1474;51.460;7.150;2023-12-20T11:35:50;100413.00;;;14.70
80581;BMP180;1474;51.460;7.150;2023-12-20T11:38:19;100424.00;;;14.70
80581;BMP180;1474;51.460;7.150;2023-12-20T11:40:53;100420.00;;;14.70
80581;BMP180;1474;51.460;7.150;2023-12-20T11:43:35;100418.00;;;14.70
80581;BMP180;1474;51.460;7.150;2023-12-20T11:46:09;100412.00;;;14.70
80581;BMP180;1474;51.460;7.150;2023-12-20T11:48:38;100415.00;;;14.70
80581;BMP180;1474;51.460;7.150;2023-12-20T11:51:11;100400.00;;;14.70
80581;BMP180;1474;51.460;7.150;2023-12-20T11:53:38;100402.00;;;14.70
80581;BMP180;1474;51.460;7.150;2023-12-20T11:56:07;100399.00;;;14.70
80581;BMP180;1474;51.460;7.150;2023-12-20T11:58:36;100405.00;;;14.70
80581;BMP180;1474;51.460;7.150;2023-12-20T12:01:03;100400.00;;;14.70
80581;BMP180;1474;51.460;7.150;2023-12-20T12:03:30;100403.00;;;14.70
80581;BMP180;1474;51.460;7.150;2023-12-20T12:05:58;100404.00;;;14.70
80581;BMP180;1474;51.460;7.150;2023-12-20T12:08:26;100400.00;;;14.70
80581;BMP180;1474;51.460;7.150;2023-12-20T12:10:52;100386.00;;;14.70
80581;BMP180;1474;51.460;7.150;2023-12-20T12:13:18;100391.00;;;14.70
80581;BMP180;1474;51.460;7.150;2023-12-20T12:15:43;100385.00;;;14.70
80581;BMP180;1474;51.460;7.150;2023-12-20T12:18:10;100385.00;;;14.70
80581;BMP180;1474;51.460;7.150;2023-12-20T12:20:36;100373.00;;;14.70
80581;BMP180;1474;51.460;7.150;2023-12-20T12:23:04;100372.00;;;14.70
80581;BMP180;1474;51.460;7.150;2023-12-20T12:25:34;100363.00;;;14.70
80581;BMP180;1474;51.460;7.150;2023-12-20T12:28:00;100365.00;;;14.70
80581;BMP180;1474;51.460;7.150;2023-12-20T12:30:26;100362.00;;;14.70
80581;BMP180;1474;51.460;7.150;2023-12-20T12:32:53;100371.00;;;14.70
80581;BMP180;1474;51.460;7.150;2023-12-20T12:35:20;100372.00;;;14.70
80581;BMP180;1474;51.460;7.150;2023-12-20T12:37:46;100366.00;;;14.70
80581;BMP180;1474;51.460;7.150;2023-12-20T12:40:16;100368.00;;;14.70
80581;BMP180;1474;51.460;7.150;2023-12-20T12:42:44;100372.00;;;14.70
80581;BMP180;1474;51.460;7.150;2023-12-20T12:45:11;100365.00;;;14.70
80581;BMP180;1474;51.460;7.150;2023-12-20T12:47:38;100361.00;;;14.70
80581;BMP180;1474;51.460;7.150;2023-12-20T12:50:04;100355.00;;;14.70
80581;BMP180;1474;51.460;7.150;2023-12-20T12:52:31;100360.00;;;14.70
80581;BMP180;1474;51.460;7.150;2023-12-20T12:54:57;100350.00;;;14.70
80581;BMP180;1474;51.460;7.150;2023-12-20T12:57:23;100349.00;;;14.70
80581;BMP180;1474;51.460;7.150;2023-12-20T12:59:49;100354.00;;;14.70
80581;BMP180;1474;51.460;7.150;2023-12-20T13:02:15;100345.00;;;14.70
80581;BMP180;1474;51.460;7.150;2023-12-20T13:04:41;100344.00;;;14.70
80581;BMP180;1474;51.460;7.150;2023-12-20T13:07:09;100335.00;;;14.70
80581;BMP180;1474;51.460;7.150;2023-12-20T13:09:39;100341.00;;;14.70
80581;BMP180;1474;51.460;7.150;2023-12-20T13:12:06;100335.00;;;14.70
80581;BMP180;1474;51.460;7.150;2023-12-20T13:14:34;100317.00;;;14.70
80581;BMP180;1474;51.460;7.150;2023-12-20T13:17:01;100301.00;;;14.70
80581;BMP180;1474;51.460;7.150;2023-12-20T13:19:27;100309.00;;;14.70
80581;BMP180;1474;51.460;7.150;2023-12-20T13:21:53;100293.00;;;14.70
80581;BMP180;1474;51.460;7.150;2023-12-20T13:24:19;100299.00;;;14.70
80581;BMP180;1474;51.460;7.150;2023-12-20T13:26:44;100285.00;;;14.70
80581;BMP180;1474;51.460;7.150;2023-12-20T13:29:10;100299.00;;;14.70
80581;BMP180;1474;51.460;7.150;2023-12-20T13:31:37;100301.00;;;14.70
80581;BMP180;1474;51.460;7.150;2023-12-20T13:34:04;100291.00;;;14.70
80581;BMP180;1474;51.460;7.150;2023-12-20T13:36:29;100289.00;;;14.70
80581;BMP180;1474;51.460;7.150;2023-12-20T13:38:55;100300.00;;;14.70
80581;BMP180;1474;51.460;7.150;2023-12-20T13:41:21;100290.00;;;14.70
80581;BMP180;1474;51.460;7.150;2023-12-20T13:43:47;100300.00;;;14.70
80581;BMP180;1474;51.460;7.150;2023-12-20T13:46:12;100295.00;;;14.70
80581;BMP180;1474;51.460;7.150;2023-12-20T13:48:39;100298.00;;;14.70
80581;BMP180;1474;51.460;7.150;2023-12-20T13:51:05;100302.00;;;14.70
80581;BMP180;1474;51.460;7.150;2023-12-20T13:53:32;100281.00;;;14.70
80581;BMP180;1474;51.460;7.150;2023-12-20T13:55:57;100288.00;;;14.70
80581;BMP180;1474;51.460;7.150;2023-12-20T13:58:23;100283.00;;;14.70
80581;BMP180;1474;51.460;7.150;2023-12-20T14:00:49;100280.00;;;14.70
80581;BMP180;1474;51.460;7.150;2023-12-20T14:03:15;100278.00;;;14.70
80581;BMP180;1474;51.460;7.150;2023-12-20T14:05:40;100279.00;;;14.70
80581;BMP180;1474;51.460;7.150;2023-12-20T14:08:06;100276.00;;;14.70
80581;BMP180;1474;51.460;7.150;2023-12-20T14:10:33;100274.00;;;14.70
80581;BMP180;1474;51.460;7.150;2023-12-20T14:12:58;100278.00;;;14.70
80581;BMP180;1474;51.460;7.150;2023-12-20T14:15:24;100271.00;;;14.70
80581;BMP180;1474;51.460;7.150;2023-12-20T14:17:51;100270.00;;;14.70
80581;BMP180;1474;51.460;7.150;2023-12-20T14:20:16;100276.00;;;14.70
80581;BMP180;1474;51.460;7.150;2023-12-20T14:22:43;100274.00;;;14.70
80581;BMP180;1474;51.460;7.150;2023-12-20T14:25:14;100266.00;;;14.70
80581;BMP180;1474;51.460;7.150;2023-12-20T14:27:41;100260.00;;;14.70
80581;BMP180;1474;51.460;7.150;2023-12-20T14:30:09;100262.00;;;14.70
80581;BMP180;1474;51.460;7.150;2023-12-20T14:32:35;100262.00;;;14.70
80581;BMP180;1474;51.460;7.150;2023-12-20T14:35:07;100282.00;;;14.70
80581;BMP180;1474;51.460;7.150;2023-12-20T14:37:34;100281.00;;;14.70
80581;BMP180;1474;51.460;7.150;2023-12-20T14:40:01;100273.00;;;14.70
80581;BMP180;1474;51.460;7.150;2023-12-20T14:42:26;100281.00;;;14.70
80581;BMP180;1474;51.460;7.150;2023-12-20T14:44:52;100276.00;;;14.70
80581;BMP180;1474;51.460;7.150;2023-12-20T14:47:20;100277.00;;;14.70
80581;BMP180;1474;51.460;7.150;2023-12-20T14:49:45;100279.00;;;14.70
80581;BMP180;1474;51.460;7.150;2023-12-20T14:52:13;100285.00;;;14.70
80581;BMP180;1474;51.460;7.150;2023-12-20T14:54:39;100281.00;;;14.70
80581;BMP180;1474;51.460;7.150;2023-12-20T14:57:05;100277.00;;;14.70
80581;BMP180;1474;51.460;7.150;2023-12-20T14:59:30;100282.00;;;14.70
80581;BMP180;1474;51.460;7.150;2023-12-20T15:01:56;100270.00;;;14.70
80581;BMP180;1474;51.460;7.150;2023-12-20T15:04:22;100273.00;;;14.70
80581;BMP180;1474;51.460;7.150;2023-12-20T15:06:57;100284.00;;;14.70
80581;BMP180;1474;51.460;7.150;2023-12-20T15:09:22;100273.00;;;14.70
80581;BMP180;1474;51.460;7.150;2023-12-20T15:11:48;100263.00;;;14.70
80581;BMP180;1474;51.460;7.150;2023-12-20T15:14:14;100265.00;;;14.70
80581;BMP180;1474;51.460;7.150;2023-12-20T15:16:45;100266.00;;;14.70
80581;BMP180;1474;51.460;7.150;2023-12-20T15:19:14;100266.00;;;14.70
80581;BMP180;1474;51.460;7.150;2023-12-20T15:21:40;100260.00;;;14.70
80581;BMP180;1474;51.460;7.150;2023-12-20T15:24:11;100264.00;;;14.70
80581;BMP180;1474;51.460;7.150;2023-12-20T15:26:46;100251.00;;;14.70
80581;BMP180;1474;51.460;7.150;2023-12-20T15:29:12;100247.00;;;14.70
80581;BMP180;1474;51.460;7.150;2023-12-20T15:31:47;100249.00;;;14.70
80581;BMP180;1474;51.460;7.150;2023-12-20T15:34:13;100263.00;;;14.70
80581;BMP180;1474;51.460;7.150;2023-12-20T15:36:40;100275.00;;;14.70
80581;BMP180;1474;51.460;7.150;2023-12-20T15:39:06;100278.00;;;14.70
80581;BMP180;1474;51.460;7.150;2023-12-20T15:41:34;100266.00;;;14.70
80581;BMP180;1474;51.460;7.150;2023-12-20T15:44:00;100268.00;;;14.70
80581;BMP180;1474;51.460;7.150;2023-12-20T15:46:26;100270.00;;;14.70
80581;BMP180;1474;51.460;7.150;2023-12-20T15:48:51;100269.00;;;14.70
80581;BMP180;1474;51.460;7.150;2023-12-20T15:51:21;100257.00;;;14.70
80581;BMP180;1474;51.460;7.150;2023-12-20T15:53:47;100261.00;;;14.70
80581;BMP180;1474;51.460;7.150;2023-12-20T15:56:13;100258.00;;;14.70
80581;BMP180;1474;51.460;7.150;2023-12-20T15:58:38;100253.00;;;14.70
80581;BMP180;1474;51.460;7.150;2023-12-20T16:01:04;100260.00;;;14.70
80581;BMP180;1474;51.460;7.150;2023-12-20T16:03:30;100265.00;;;14.70
80581;BMP180;1474;51.460;7.150;2023-12-20T16:05:56;100254.00;;;14.70
80581;BMP180;1474;51.460;7.150;2023-12-20T16:08:21;100255.00;;;14.70
80581;BMP180;1474;51.460;7.150;2023-12-20T16:10:47;100240.00;;;14.70
80581;BMP180;1474;51.460;7.150;2023-12-20T16:13:13;100234.00;;;14.70
80581;BMP180;1474;51.460;7.150;2023-12-20T16:15:39;100222.00;;;14.70
80581;BMP180;1474;51.460;7.150;2023-12-20T16:18:04;100235.00;;;14.70
80581;BMP180;1474;51.460;7.150;2023-12-20T16:20:34;100234.00;;;14.70
80581;BMP180;1474;51.460;7.150;2023-12-20T16:23:00;100233.00;;;14.70
80581;BMP180;1474;51.460;7.150;2023-12-20T16:25:26;100230.00;;;14.70
80581;BMP180;1474;51.460;7.150;2023-12-20T16:27:52;100227.00;;;14.70
80581;BMP180;1474;51.460;7.150;2023-12-20T16:30:18;100227.00;;;14.70
80581;BMP180;1474;51.460;7.150;2023-12-20T16:32:43;100226.00;;;14.70
80581;BMP180;1474;51.460;7.150;2023-12-20T16:35:09;100227.00;;;14.70
80581;BMP180;1474;51.460;7.150;2023-12-20T16:37:36;100222.00;;;14.70
80581;BMP180;1474;51.460;7.150;2023-12-20T16:40:07;100222.00;;;14.70
80581;BMP180;1474;51.460;7.150;2023-12-20T16:42:33;100229.00;;;14.70
80581;BMP180;1474;51.460;7.150;2023-12-20T16:44:59;100223.00;;;14.70
80581;BMP180;1474;51.460;7.150;2023-12-20T16:47:25;100214.00;;;14.70
80581;BMP180;1474;51.460;7.150;2023-12-20T16:49:51;100213.00;;;14.70
80581;BMP180;1474;51.460;7.150;2023-12-20T16:52:17;100216.00;;;14.70
80581;BMP180;1474;51.460;7.150;2023-12-20T16:54:42;100214.00;;;14.70
80581;BMP180;1474;51.460;7.150;2023-12-20T16:57:08;100215.00;;;14.70
80581;BMP180;1474;51.460;7.150;2023-12-20T16:59:34;100210.00;;;14.70
80581;BMP180;1474;51.460;7.150;2023-12-20T17:02:00;100204.00;;;14.70
80581;BMP180;1474;51.460;7.150;2023-12-20T17:04:28;100199.00;;;14.70
80581;BMP180;1474;51.460;7.150;2023-12-20T17:06:56;100199.00;;;14.70
80581;BMP180;1474;51.460;7.150;2023-12-20T17:09:22;100186.00;;;14.70
80581;BMP180;1474;51.460;7.150;2023-12-20T17:11:48;100187.00;;;14.70
80581;BMP180;1474;51.460;7.150;2023-12-20T17:14:14;100183.00;;;14.70
80581;BMP180;1474;51.460;7.150;2023-12-20T17:16:39;100178.00;;;14.70
80581;BMP180;1474;51.460;7.150;2023-12-20T17:19:05;100177.00;;;14.70
80581;BMP180;1474;51.460;7.150;2023-12-20T17:21:31;100168.00;;;14.70
80581;BMP180;1474;51.460;7.150;2023-12-20T17:23:57;100169.00;;;14.70
80581;BMP180;1474;51.460;7.150;2023-12-20T17:26:23;100168.00;;;14.70
80581;BMP180;1474;51.460;7.150;2023-12-20T17:28:49;100162.00;;;14.70
80581;BMP180;1474;51.460;7.150;2023-12-20T17:31:14;100164.00;;;14.70
80581;BMP180;1474;51.460;7.150;2023-12-20T17:33:40;100165.00;;;14.70
80581;BMP180;1474;51.460;7.150;2023-12-20T17:36:07;100159.00;;;14.70
80581;BMP180;1474;51.460;7.150;2023-12-20T17:38:33;100160.00;;;14.70
80581;BMP180;1474;51.460;7.150;2023-12-20T17:41:03;100159.00;;;14.70
80581;BMP180;1474;51.460;7.150;2023-12-20T17:43:29;100148.00;;;14.70
80581;BMP180;1474;51.460;7.150;2023-12-20T17:45:55;100144.00;;;14.70
80581;BMP180;1474;51.460;7.150;2023-12-20T17:48:20;100140.00;;;14.70
80581;BMP180;1474;51.460;7.150;2023-12-20T17:50:48;100145.00;;;14.70
80581;BMP180;1474;51.460;7.150;2023-12-20T17:53:14;100141.00;;;14.70
80581;BMP180;1474;51.460;7.150;2023-12-20T17:55:40;100141.00;;;14.70
80581;BMP180;1474;51.460;7.150;2023-12-20T17:58:05;100130.00;;;14.70
80581;BMP180;1474;51.460;7.150;2023-12-20T18:00:35;100123.00;;;14.70
80581;BMP180;1474;51.460;7.150;2023-12-20T18:03:01;100126.00;;;14.70
80581;BMP180;1474;51.460;7.150;2023-12-20T18:05:27;100107.00;;;14.70
80581;BMP180;1474;51.460;7.150;2023-12-20T18:07:53;100107.00;;;14.70
80581;BMP180;1474;51.460;7.150;2023-12-20T18:10:19;100119.00;;;14.70
80581;BMP180;1474;51.460;7.150;2023-12-20T18:12:46;100109.00;;;14.70
80581;BMP180;1474;51.460;7.150;2023-12-20T18:15:15;100100.00;;;14.70
80581;BMP180;1474;51.460;7.150;2023-12-20T18:17:41;100118.00;;;14.70
80581;BMP180;1474;51.460;7.150;2023-12-20T18:20:07;100110.00;;;14.70
80581;BMP180;1474;51.460;7.150;2023-12-20T18:22:33;100103.00;;;14.80
80581;BMP180;1474;51.460;7.150;2023-12-20T18:24:59;100094.00;;;14.80
80581;BMP180;1474;51.460;7.150;2023-12-20T18:27:25;100092.00;;;14.80
80581;BMP180;1474;51.460;7.150;2023-12-20T18:29:54;100093.00;;;14.80
80581;BMP180;1474;51.460;7.150;2023-12-20T18:32:19;100083.00;;;14.80
80581;BMP180;1474;51.460;7.150;2023-12-20T18:34:46;100083.00;;;14.80
80581;BMP180;1474;51.460;7.150;2023-12-20T18:37:11;100083.00;;;14.80
80581;BMP180;1474;51.460;7.150;2023-12-20T18:39:38;100073.00;;;14.70
80581;BMP180;1474;51.460;7.150;2023-12-20T18:42:05;100065.00;;;14.70
80581;BMP180;1474;51.460;7.150;2023-12-20T18:44:31;100062.00;;;14.70
80581;BMP180;1474;51.460;7.150;2023-12-20T18:47:00;100065.00;;;14.70
80581;BMP180;1474;51.460;7.150;2023-12-20T18:49:26;100049.00;;;14.70
80581;BMP180;1474;51.460;7.150;2023-12-20T18:51:53;100054.00;;;14.70
80581;BMP180;1474;51.460;7.150;2023-12-20T18:54:19;100057.00;;;14.70
80581;BMP180;1474;51.460;7.150;2023-12-20T18:56:46;100038.00;;;14.70
80581;BMP180;1474;51.460;7.150;2023-12-20T18:59:14;100042.00;;;14.70
80581;BMP180;1474;51.460;7.150;2023-12-20T19:01:43;100039.00;;;14.70
80581;BMP180;1474;51.460;7.150;2023-12-20T19:04:08;100034.00;;;14.80
80581;BMP180;1474;51.460;7.150;2023-12-20T19:06:34;100036.00;;;14.90
80581;BMP180;1474;51.460;7.150;2023-12-20T19:09:00;100040.00;;;15.10
80581;BMP180;1474;51.460;7.150;2023-12-20T19:11:25;100033.00;;;15.40
80581;BMP180;1474;51.460;7.150;2023-12-20T19:13:51;100028.00;;;15.60
80581;BMP180;1474;51.460;7.150;2023-12-20T19:16:17;100023.00;;;15.80
80581;BMP180;1474;51.460;7.150;2023-12-20T19:18:43;100016.00;;;16.00
80581;BMP180;1474;51.460;7.150;2023-12-20T19:21:09;100019.00;;;16.10
80581;BMP180;1474;51.460;7.150;2023-12-20T19:23:34;100015.00;;;16.20
80581;BMP180;1474;51.460;7.150;2023-12-20T19:26:01;100006.00;;;16.20
80581;BMP180;1474;51.460;7.150;2023-12-20T19:28:28;100007.00;;;16.20
80581;BMP180;1474;51.460;7.150;2023-12-20T19:30:54;100006.00;;;16.30
80581;BMP180;1474;51.460;7.150;2023-12-20T19:33:23;100001.00;;;16.30
80581;BMP180;1474;51.460;7.150;2023-12-20T19:35:49;100002.00;;;16.30
80581;BMP180;1474;51.460;7.150;2023-12-20T19:38:14;100004.00;;;16.30
80581;BMP180;1474;51.460;7.150;2023-12-20T19:40:41;99999.00;;;16.30
80581;BMP180;1474;51.460;7.150;2023-12-20T19:43:07;99985.00;;;16.20
80581;BMP180;1474;51.460;7.150;2023-12-20T19:45:34;99977.00;;;16.20
80581;BMP180;1474;51.460;7.150;2023-12-20T19:48:00;99982.00;;;16.20
80581;BMP180;1474;51.460;7.150;2023-12-20T19:50:26;99983.00;;;16.10
80581;BMP180;1474;51.460;7.150;2023-12-20T19:52:51;99984.00;;;16.10
80581;BMP180;1474;51.460;7.150;2023-12-20T19:55:17;99979.00;;;16.10
80581;BMP180;1474;51.460;7.150;2023-12-20T19:57:43;99966.00;;;16.10
80581;BMP180;1474;51.460;7.150;2023-12-20T20:00:09;99969.00;;;16.10
80581;BMP180;1474;51.460;7.150;2023-12-20T20:02:35;99964.00;;;16.10
80581;BMP180;1474;51.460;7.150;2023-12-20T20:05:04;99972.00;;;16.10
80581;BMP180;1474;51.460;7.150;2023-12-20T20:07:33;99956.00;;;16.00
80581;BMP180;1474;51.460;7.150;2023-12-20T20:09:58;99955.00;;;16.00
80581;BMP180;1474;51.460;7.150;2023-12-20T20:12:25;99944.00;;;16.00